createdAt,value
2019-05-09T00:02:39.330Z,10.50
2019-05-09T00:05:10.675Z,10.50
2019-05-09T00:07:41.123Z,10.50
2019-05-09T00:10:11.588Z,10.40
2019-05-09T00:12:43.757Z,10.40
2019-05-09T00:15:13.942Z,10.40
2019-05-09T00:17:44.488Z,10.50
2019-05-09T00:20:25.259Z,10.40
2019-05-09T00:22:55.602Z,10.40
2019-05-09T00:25:25.983Z,10.40
2019-05-09T00:27:56.343Z,10.40
2019-05-09T00:30:44.698Z,10.30
2019-05-09T00:33:16.567Z,10.20
2019-05-09T00:35:46.951Z,10.20
2019-05-09T00:38:18.495Z,10.20
2019-05-09T00:40:57.762Z,10.20
2019-05-09T00:43:23.673Z,10.20
2019-05-09T00:46:14.160Z,10.10
2019-05-09T00:48:56.710Z,10.10
2019-05-09T00:51:27.015Z,10.10
2019-05-09T00:53:57.310Z,10.20
2019-05-09T00:56:27.591Z,10.20
2019-05-09T00:58:57.960Z,10.30
2019-05-09T01:01:28.453Z,10.30
2019-05-09T01:03:58.916Z,10.40
2019-05-09T01:06:29.404Z,10.40
2019-05-09T01:08:59.755Z,10.30
2019-05-09T01:11:30.155Z,10.20
2019-05-09T01:14:00.510Z,10.20
2019-05-09T01:16:33.320Z,10.20
2019-05-09T01:19:03.695Z,10.10
2019-05-09T01:21:34.267Z,10.00
2019-05-09T01:24:05.190Z,10.00
2019-05-09T01:26:35.639Z,9.90
2019-05-09T01:29:06.006Z,9.90
2019-05-09T01:31:36.679Z,9.90
2019-05-09T01:34:23.971Z,10.40
2019-05-09T01:37:04.237Z,10.40
2019-05-09T01:39:35.758Z,10.30
2019-05-09T01:42:06.827Z,10.30
2019-05-09T01:44:37.681Z,10.30
2019-05-09T01:47:08.032Z,10.30
2019-05-09T01:49:38.393Z,10.30
2019-05-09T01:52:08.743Z,10.30
2019-05-09T01:54:40.778Z,10.30
2019-05-09T01:57:11.143Z,10.30
2019-05-09T01:59:41.423Z,10.30
2019-05-09T02:02:14.024Z,10.30
2019-05-09T02:04:44.015Z,10.30
2019-05-09T02:07:14.739Z,10.30
2019-05-09T02:09:45.110Z,10.30
2019-05-09T02:12:15.599Z,10.30
2019-05-09T02:14:55.439Z,10.30
2019-05-09T02:18:01.584Z,10.40
2019-05-09T02:20:29.326Z,10.30
2019-05-09T02:22:59.891Z,10.30
2019-05-09T02:25:30.189Z,10.30
2019-05-09T02:28:00.651Z,10.40
2019-05-09T02:30:31.047Z,10.50
2019-05-09T02:33:01.515Z,10.50
2019-05-09T02:35:39.719Z,10.60
2019-05-09T02:38:04.769Z,10.60
2019-05-09T02:40:35.216Z,10.60
2019-05-09T02:43:05.672Z,10.60
2019-05-09T02:45:52.331Z,10.50
2019-05-09T02:48:18.738Z,10.50
2019-05-09T02:50:49.099Z,10.60
2019-05-09T02:53:19.385Z,10.50
2019-05-09T02:55:49.782Z,10.50
2019-05-09T02:58:22.264Z,10.50
2019-05-09T03:01:18.977Z,10.40
2019-05-09T03:03:49.522Z,10.40
2019-05-09T03:06:19.942Z,10.40
2019-05-09T03:08:50.287Z,10.40
2019-05-09T03:11:20.651Z,10.40
2019-05-09T03:13:51.125Z,10.40
2019-05-09T03:16:21.502Z,10.40
2019-05-09T03:18:51.944Z,10.40
2019-05-09T03:21:29.861Z,10.40
2019-05-09T03:23:59.902Z,10.30
2019-05-09T03:26:33.680Z,10.30
2019-05-09T03:29:20.051Z,10.30
2019-05-09T03:31:51.510Z,10.30
2019-05-09T03:34:21.851Z,10.30
2019-05-09T03:36:52.300Z,10.30
2019-05-09T03:39:22.654Z,10.30
2019-05-09T03:41:53.023Z,10.30
2019-05-09T03:44:23.511Z,10.30
2019-05-09T03:47:22.134Z,10.30
2019-05-09T03:50:27.988Z,10.30
2019-05-09T03:52:58.519Z,10.20
2019-05-09T03:55:32.675Z,10.10
2019-05-09T03:58:21.922Z,10.10
2019-05-09T04:00:52.293Z,10.10
2019-05-09T04:03:22.650Z,10.00
2019-05-09T04:05:59.288Z,10.10
2019-05-09T04:08:25.298Z,10.10
2019-05-09T04:10:58.401Z,10.10
2019-05-09T04:13:35.848Z,10.00
2019-05-09T04:16:07.483Z,9.90
2019-05-09T04:18:40.235Z,9.80
2019-05-09T04:21:10.156Z,9.70
2019-05-09T04:23:40.690Z,9.60
2019-05-09T04:26:17.750Z,9.70
2019-05-09T04:28:48.048Z,9.70
2019-05-09T04:31:18.409Z,9.80
2019-05-09T04:33:48.648Z,9.80
2019-05-09T04:36:21.183Z,9.80
2019-05-09T04:38:51.530Z,9.80
2019-05-09T04:41:23.865Z,9.70
2019-05-09T04:43:53.963Z,9.80
2019-05-09T04:46:24.558Z,9.70
2019-05-09T04:48:59.552Z,9.70
2019-05-09T04:51:28.365Z,9.70
2019-05-09T04:53:58.835Z,9.70
2019-05-09T04:56:33.974Z,9.70
2019-05-09T04:59:04.341Z,9.80
2019-05-09T05:01:51.723Z,9.80
2019-05-09T05:04:23.944Z,9.90
2019-05-09T05:06:54.389Z,9.90
2019-05-09T05:09:24.769Z,9.90
2019-05-09T05:11:55.125Z,9.80
2019-05-09T05:14:28.095Z,9.70
2019-05-09T05:17:07.409Z,9.60
2019-05-09T05:19:31.470Z,9.60
2019-05-09T05:22:10.888Z,9.50
2019-05-09T05:24:48.528Z,9.50
2019-05-09T05:27:18.993Z,9.50
2019-05-09T05:29:49.412Z,9.50
2019-05-09T05:32:43.772Z,9.60
2019-05-09T05:35:28.469Z,9.60
2019-05-09T05:37:58.523Z,9.50
2019-05-09T05:40:33.148Z,9.50
2019-05-09T05:43:01.032Z,9.50
2019-05-09T05:45:33.862Z,9.60
2019-05-09T05:48:12.442Z,9.60
2019-05-09T05:50:42.700Z,9.60
2019-05-09T05:53:13.250Z,9.70
2019-05-09T05:55:43.690Z,9.70
2019-05-09T05:58:14.032Z,9.70
2019-05-09T06:00:44.403Z,9.70
2019-05-09T06:03:14.739Z,9.70
2019-05-09T06:05:49.334Z,9.70
2019-05-09T06:08:17.560Z,9.70
2019-05-09T06:10:48.358Z,9.80
2019-05-09T06:13:19.068Z,9.90
2019-05-09T06:15:49.435Z,10.00
2019-05-09T06:18:19.887Z,10.00
2019-05-09T06:20:50.279Z,10.10
2019-05-09T06:23:20.639Z,10.10
2019-05-09T06:25:51.043Z,10.10
2019-05-09T06:28:21.512Z,10.10
2019-05-09T06:30:51.851Z,10.10
2019-05-09T06:33:22.225Z,10.00
2019-05-09T06:35:52.660Z,10.00
2019-05-09T06:38:23.111Z,10.00
2019-05-09T06:40:53.571Z,10.00
2019-05-09T06:43:25.630Z,9.90
2019-05-09T06:46:18.289Z,9.90
2019-05-09T06:48:48.734Z,9.90
2019-05-09T06:51:21.387Z,9.90
2019-05-09T06:53:51.190Z,10.00
2019-05-09T06:56:21.578Z,10.00
2019-05-09T06:58:52.047Z,10.10
2019-05-09T07:01:33.931Z,10.10
2019-05-09T07:04:09.364Z,10.00
2019-05-09T07:06:44.317Z,10.10
2019-05-09T07:09:24.603Z,10.10
2019-05-09T07:11:54.898Z,10.20
2019-05-09T07:14:33.018Z,10.30
2019-05-09T07:17:01.519Z,10.40
2019-05-09T07:19:31.972Z,10.50
2019-05-09T07:22:10.043Z,10.60
2019-05-09T07:25:07.563Z,10.70
2019-05-09T07:27:35.351Z,10.70
2019-05-09T07:30:13.115Z,10.80
2019-05-09T07:32:50.399Z,10.80
2019-05-09T07:35:20.758Z,10.80
2019-05-09T07:37:51.149Z,10.80
2019-05-09T07:40:21.500Z,10.80
2019-05-09T07:42:51.844Z,10.80
2019-05-09T07:45:22.339Z,10.80
2019-05-09T07:47:53.015Z,10.80
2019-05-09T07:50:23.358Z,10.80
2019-05-09T07:52:53.643Z,10.80
2019-05-09T07:55:24.119Z,10.80
2019-05-09T07:57:55.482Z,10.80
2019-05-09T08:00:33.748Z,10.80
2019-05-09T08:03:04.190Z,10.90
2019-05-09T08:05:34.620Z,10.90
2019-05-09T08:08:08.956Z,10.90
2019-05-09T08:10:39.318Z,11.00
2019-05-09T08:13:12.120Z,11.00
2019-05-09T08:15:41.747Z,10.90
2019-05-09T08:18:12.276Z,10.90
2019-05-09T08:20:42.723Z,11.00
2019-05-09T08:23:13.071Z,11.00
2019-05-09T08:25:43.424Z,11.00
2019-05-09T08:28:13.887Z,11.10
2019-05-09T08:30:44.360Z,11.00
2019-05-09T08:33:14.718Z,11.10
2019-05-09T08:35:49.904Z,11.10
2019-05-09T08:38:17.882Z,11.20
2019-05-09T08:40:50.012Z,11.20
2019-05-09T08:43:20.462Z,11.10
2019-05-09T08:45:50.825Z,11.00
2019-05-09T08:48:21.210Z,11.00
2019-05-09T08:50:58.188Z,11.00
2019-05-09T08:53:27.701Z,11.00
2019-05-09T08:55:58.141Z,11.10
2019-05-09T08:58:28.419Z,11.10
2019-05-09T09:01:03.944Z,11.20
2019-05-09T09:03:30.979Z,11.30
2019-05-09T09:06:01.456Z,11.30
2019-05-09T09:08:31.811Z,11.30
2019-05-09T09:11:02.154Z,11.40
2019-05-09T09:13:32.716Z,11.60
2019-05-09T09:16:14.416Z,11.60
2019-05-09T09:18:35.162Z,11.70
2019-05-09T09:21:07.870Z,11.80
2019-05-09T09:23:44.185Z,11.90
2019-05-09T09:26:09.672Z,12.10
2019-05-09T09:28:40.151Z,12.00
2019-05-09T09:31:10.408Z,12.10
2019-05-09T09:33:40.859Z,12.20
2019-05-09T09:36:11.203Z,12.30
2019-05-09T09:38:41.568Z,12.40
2019-05-09T09:41:12.047Z,12.40
2019-05-09T09:43:42.391Z,12.40
2019-05-09T09:46:14.822Z,12.40
2019-05-09T09:48:44.879Z,12.50
2019-05-09T09:51:15.258Z,12.50
2019-05-09T09:53:45.539Z,12.60
2019-05-09T09:56:17.817Z,12.70
2019-05-09T09:58:54.323Z,12.70
2019-05-09T10:01:29.820Z,12.70
2019-05-09T10:04:19.563Z,12.60
2019-05-09T10:06:47.947Z,12.60
2019-05-09T10:09:17.569Z,12.40
2019-05-09T10:11:48.440Z,12.20
2019-05-09T10:14:28.340Z,12.20
2019-05-09T10:17:28.131Z,12.10
2019-05-09T10:20:11.706Z,12.20
2019-05-09T10:22:46.461Z,12.30
2019-05-09T10:25:14.230Z,12.20
2019-05-09T10:27:47.869Z,12.20
2019-05-09T10:30:19.047Z,12.30
2019-05-09T10:32:49.478Z,12.30
2019-05-09T10:35:24.916Z,12.40
2019-05-09T10:37:58.595Z,12.50
2019-05-09T10:40:28.192Z,12.50
2019-05-09T10:43:10.747Z,12.60
2019-05-09T10:46:00.151Z,12.50
2019-05-09T10:48:30.647Z,12.40
2019-05-09T10:51:04.816Z,12.40
2019-05-09T10:53:33.480Z,12.30
2019-05-09T10:56:03.851Z,12.30
2019-05-09T10:58:34.124Z,12.20
2019-05-09T11:01:04.507Z,12.20
2019-05-09T11:03:37.550Z,12.20
2019-05-09T11:06:08.656Z,12.10
2019-05-09T11:08:39.023Z,12.00
2019-05-09T11:11:09.783Z,12.00
2019-05-09T11:13:40.119Z,11.90
2019-05-09T11:16:10.471Z,11.80
2019-05-09T11:18:40.923Z,11.90
2019-05-09T11:21:11.367Z,11.90
2019-05-09T11:23:42.117Z,12.00
2019-05-09T11:26:12.456Z,12.10
2019-05-09T11:28:42.807Z,12.20
2019-05-09T11:31:13.526Z,12.20
2019-05-09T11:33:44.033Z,12.30
2019-05-09T11:36:15.293Z,12.40
2019-05-09T11:38:49.373Z,12.40
2019-05-09T11:41:19.593Z,12.40
2019-05-09T11:43:50.996Z,12.60
2019-05-09T11:46:21.544Z,12.60
2019-05-09T11:48:51.899Z,12.60
2019-05-09T11:51:22.873Z,12.70
2019-05-09T11:53:53.458Z,12.70
2019-05-09T11:56:23.967Z,12.70
2019-05-09T11:58:54.419Z,12.80
2019-05-09T12:01:24.707Z,12.90
2019-05-09T12:03:57.588Z,13.10
2019-05-09T12:06:28.940Z,13.20
2019-05-09T12:08:59.194Z,13.30
2019-05-09T12:11:29.739Z,13.30
2019-05-09T12:14:00.085Z,13.20
2019-05-09T12:16:30.425Z,13.20
2019-05-09T12:19:00.905Z,13.30
2019-05-09T12:21:31.360Z,13.40
2019-05-09T12:24:01.714Z,13.60
2019-05-09T12:26:32.154Z,13.60
2019-05-09T12:29:02.636Z,13.40
2019-05-09T12:31:32.971Z,13.50
2019-05-09T12:34:03.484Z,13.60
2019-05-09T12:36:33.791Z,13.70
2019-05-09T12:39:08.787Z,13.70
2019-05-09T12:41:39.252Z,13.70
2019-05-09T12:44:09.711Z,13.80
2019-05-09T12:46:40.182Z,13.90
2019-05-09T12:49:10.767Z,13.90
2019-05-09T12:51:41.239Z,13.90
2019-05-09T12:54:11.712Z,13.90
2019-05-09T12:56:42.063Z,13.70
2019-05-09T12:59:12.433Z,13.50
2019-05-09T13:01:42.948Z,13.50
2019-05-09T13:04:13.314Z,13.50
2019-05-09T13:06:43.662Z,13.50
2019-05-09T13:09:14.032Z,13.60
2019-05-09T13:11:44.407Z,13.70
2019-05-09T13:14:14.759Z,13.50
2019-05-09T13:17:00.249Z,13.70
2019-05-09T13:19:38.171Z,13.70
2019-05-09T13:22:08.342Z,13.80
2019-05-09T13:24:38.904Z,13.90
2019-05-09T13:27:09.394Z,14.00
2019-05-09T13:29:39.752Z,13.90
2019-05-09T13:32:10.198Z,13.90
2019-05-09T13:34:40.545Z,14.00
2019-05-09T13:37:10.917Z,14.10
2019-05-09T13:39:41.405Z,14.10
2019-05-09T13:42:11.751Z,14.10
2019-05-09T13:44:42.215Z,14.20
2019-05-09T13:47:12.523Z,14.10
2019-05-09T13:49:43.000Z,14.10
2019-05-09T13:52:13.406Z,14.10
2019-05-09T13:54:43.676Z,14.10
2019-05-09T13:57:14.121Z,14.10
2019-05-09T13:59:44.479Z,14.10
2019-05-09T14:02:14.831Z,14.20
2019-05-09T14:04:48.356Z,14.30
2019-05-09T14:07:19.309Z,14.30
2019-05-09T14:09:49.453Z,14.30
2019-05-09T14:12:19.930Z,14.30
2019-05-09T14:14:50.294Z,14.30
2019-05-09T14:17:40.577Z,14.30
2019-05-09T14:19:52.784Z,14.20
2019-05-09T14:22:23.098Z,14.10
2019-05-09T14:24:53.448Z,14.20
2019-05-09T14:27:23.911Z,14.20
2019-05-09T14:29:54.283Z,14.20
2019-05-09T14:32:26.733Z,14.10
2019-05-09T14:34:58.681Z,14.10
2019-05-09T14:37:28.565Z,14.10
2019-05-09T14:40:03.845Z,14.00
2019-05-09T14:42:31.138Z,13.90
2019-05-09T14:45:01.403Z,13.90
2019-05-09T14:47:31.791Z,13.80
2019-05-09T14:50:02.235Z,13.80
2019-05-09T14:52:32.607Z,13.80
2019-05-09T14:55:03.110Z,13.90
2019-05-09T14:57:33.458Z,14.00
2019-05-09T15:00:04.294Z,14.00
2019-05-09T15:02:34.675Z,14.00
2019-05-09T15:05:09.169Z,14.00
2019-05-09T15:07:38.891Z,14.00
2019-05-09T15:10:09.352Z,13.90
2019-05-09T15:12:39.706Z,13.90
2019-05-09T15:15:11.131Z,13.90
2019-05-09T15:17:41.480Z,13.80
2019-05-09T15:20:12.095Z,13.70
2019-05-09T15:22:42.443Z,13.70
2019-05-09T15:25:12.965Z,13.70
2019-05-09T15:27:44.275Z,13.70
2019-05-09T15:30:14.814Z,13.60
2019-05-09T15:32:46.899Z,13.60
2019-05-09T15:35:18.293Z,13.60
2019-05-09T15:37:48.878Z,13.60
2019-05-09T15:40:19.258Z,13.60
2019-05-09T15:42:49.811Z,13.70
2019-05-09T15:45:20.327Z,13.60
2019-05-09T15:47:50.738Z,13.60
2019-05-09T15:50:23.327Z,13.60
2019-05-09T15:52:53.340Z,13.60
2019-05-09T15:55:23.746Z,13.60
2019-05-09T15:57:54.278Z,13.50
2019-05-09T16:00:24.668Z,13.50
2019-05-09T16:02:54.957Z,13.40
2019-05-09T16:05:25.320Z,13.50
2019-05-09T16:07:55.770Z,13.40
2019-05-09T16:10:28.331Z,13.70
2019-05-09T16:12:58.222Z,13.70
2019-05-09T16:15:28.853Z,13.50
2019-05-09T16:17:59.275Z,13.40
2019-05-09T16:20:37.624Z,13.30
2019-05-09T16:23:01.842Z,13.20
2019-05-09T16:25:32.159Z,13.20
2019-05-09T16:28:02.517Z,13.20
2019-05-09T16:30:32.993Z,13.10
2019-05-09T16:33:03.455Z,13.00
2019-05-09T16:35:33.803Z,12.90
2019-05-09T16:38:07.894Z,12.70
2019-05-09T16:40:38.629Z,12.70
2019-05-09T16:43:09.124Z,12.70
2019-05-09T16:45:39.646Z,12.60
2019-05-09T16:48:11.447Z,12.50
2019-05-09T16:50:57.668Z,12.50
2019-05-09T16:53:14.108Z,12.50
2019-05-09T16:55:44.694Z,12.50
2019-05-09T16:58:15.181Z,12.50
2019-05-09T17:00:49.156Z,12.50
2019-05-09T17:03:19.662Z,12.60
2019-05-09T17:05:50.216Z,12.40
2019-05-09T17:08:20.762Z,12.40
2019-05-09T17:10:52.261Z,12.40
2019-05-09T17:13:23.030Z,12.30
2019-05-09T17:15:53.313Z,12.30
2019-05-09T17:18:23.678Z,12.20
2019-05-09T17:21:21.500Z,12.20
2019-05-09T17:23:48.086Z,12.10
2019-05-09T17:26:18.753Z,12.10
2019-05-09T17:28:49.212Z,12.10
2019-05-09T17:31:19.666Z,12.10
2019-05-09T17:33:50.115Z,12.20
2019-05-09T17:36:20.580Z,12.30
2019-05-09T17:38:50.966Z,12.30
2019-05-09T17:41:21.430Z,12.30
2019-05-09T17:43:51.847Z,12.20
2019-05-09T17:46:24.489Z,12.20
2019-05-09T17:48:54.475Z,12.10
2019-05-09T17:51:33.259Z,12.00
2019-05-09T17:53:58.369Z,11.80
2019-05-09T17:56:28.926Z,11.70
2019-05-09T17:58:59.327Z,11.50
2019-05-09T18:01:29.702Z,11.40
2019-05-09T18:04:00.207Z,11.30
2019-05-09T18:06:30.683Z,11.10
2019-05-09T18:09:01.211Z,11.00
2019-05-09T18:11:31.674Z,10.90
2019-05-09T18:14:02.039Z,10.70
2019-05-09T18:16:32.502Z,10.50
2019-05-09T18:19:03.015Z,10.40
2019-05-09T18:21:47.282Z,10.20
2019-05-09T18:24:05.647Z,10.00
2019-05-09T18:26:38.058Z,9.80
2019-05-09T18:29:08.183Z,9.70
2019-05-09T18:32:03.398Z,9.60
2019-05-09T18:34:33.873Z,9.50
2019-05-09T18:37:04.684Z,9.40
2019-05-09T18:39:37.346Z,9.30
2019-05-09T18:42:08.676Z,9.20
2019-05-09T18:44:39.430Z,9.10
2019-05-09T18:47:09.787Z,9.10
2019-05-09T18:49:40.028Z,9.00
2019-05-09T18:52:10.443Z,8.90
2019-05-09T18:54:40.855Z,8.80
2019-05-09T18:57:11.270Z,8.70
2019-05-09T18:59:41.579Z,8.60
2019-05-09T19:02:12.157Z,8.60
2019-05-09T19:04:42.564Z,8.50
2019-05-09T19:07:21.968Z,8.50
2019-05-09T19:09:45.122Z,8.40
2019-05-09T19:12:15.739Z,8.30
2019-05-09T19:14:47.241Z,8.30
2019-05-09T19:17:36.515Z,8.30
2019-05-09T19:20:29.744Z,8.30
2019-05-09T19:23:00.200Z,8.20
2019-05-09T19:25:30.670Z,8.10
2019-05-09T19:28:01.170Z,8.00
2019-05-09T19:30:31.575Z,8.00
2019-05-09T19:33:01.987Z,8.00
2019-05-09T19:35:32.498Z,8.00
2019-05-09T19:38:03.103Z,7.90
2019-05-09T19:40:33.460Z,7.80
2019-05-09T19:43:03.821Z,7.70
2019-05-09T19:45:34.308Z,7.70
2019-05-09T19:48:04.919Z,7.60
2019-05-09T19:50:36.289Z,7.60
2019-05-09T19:53:09.986Z,7.50
2019-05-09T19:55:38.756Z,7.50
2019-05-09T19:58:09.267Z,7.50
2019-05-09T20:00:39.760Z,7.50
2019-05-09T20:03:10.312Z,7.40
2019-05-09T20:05:40.681Z,7.40
2019-05-09T20:08:12.079Z,7.30
2019-05-09T20:11:08.179Z,7.40
2019-05-09T20:13:56.666Z,7.60
2019-05-09T20:16:28.414Z,7.60
2019-05-09T20:18:58.994Z,7.50
2019-05-09T20:21:29.439Z,7.50
2019-05-09T20:24:00.003Z,7.40
2019-05-09T20:26:30.489Z,7.30
2019-05-09T20:29:01.142Z,7.20
2019-05-09T20:31:31.718Z,7.10
2019-05-09T20:34:02.248Z,7.10
2019-05-09T20:36:32.590Z,7.10
2019-05-09T20:39:03.380Z,7.00
2019-05-09T20:41:34.007Z,6.90
2019-05-09T20:44:04.599Z,6.80
2019-05-09T20:46:35.158Z,6.80
2019-05-09T20:49:05.722Z,6.80
2019-05-09T20:51:36.311Z,6.70
2019-05-09T20:54:19.990Z,6.70
2019-05-09T20:56:38.955Z,6.60
2019-05-09T20:59:09.611Z,6.60
2019-05-09T21:01:40.392Z,6.50
2019-05-09T21:04:10.968Z,6.50
2019-05-09T21:06:41.907Z,6.50
2019-05-09T21:09:12.479Z,6.50
2019-05-09T21:11:43.035Z,6.40
2019-05-09T21:14:13.801Z,6.30
2019-05-09T21:16:44.340Z,6.30
2019-05-09T21:19:15.012Z,6.20
2019-05-09T21:21:45.885Z,6.20
2019-05-09T21:24:16.483Z,6.10
2019-05-09T21:26:47.051Z,6.10
2019-05-09T21:29:17.690Z,6.10
2019-05-09T21:31:48.392Z,6.00
2019-05-09T21:34:19.161Z,6.10
2019-05-09T21:36:49.527Z,6.10
2019-05-09T21:39:23.070Z,6.10
2019-05-09T21:41:53.504Z,6.00
2019-05-09T21:44:24.069Z,6.10
2019-05-09T21:46:54.633Z,6.10
2019-05-09T21:49:25.013Z,6.00
2019-05-09T21:51:55.871Z,6.00
2019-05-09T21:54:26.919Z,6.00
2019-05-09T21:56:57.342Z,6.00
2019-05-09T21:59:27.854Z,6.00
2019-05-09T22:01:58.415Z,6.10
2019-05-09T22:04:28.932Z,6.20
2019-05-09T22:06:59.387Z,6.30
2019-05-09T22:09:30.299Z,6.40
2019-05-09T22:12:00.691Z,6.40
2019-05-09T22:14:31.176Z,6.30
2019-05-09T22:17:06.040Z,6.30
2019-05-09T22:19:36.588Z,6.10
2019-05-09T22:22:07.122Z,6.00
2019-05-09T22:24:37.498Z,5.80
2019-05-09T22:27:07.975Z,5.70
2019-05-09T22:29:38.443Z,5.70
2019-05-09T22:32:08.925Z,5.60
2019-05-09T22:34:39.710Z,5.60
2019-05-09T22:37:10.051Z,5.50
2019-05-09T22:39:40.505Z,5.60
2019-05-09T22:42:10.984Z,5.60
2019-05-09T22:44:41.752Z,5.60
2019-05-09T22:47:12.216Z,5.60
2019-05-09T22:49:42.588Z,5.50
2019-05-09T22:52:13.244Z,5.60
2019-05-09T22:54:43.726Z,5.70
2019-05-09T22:57:14.839Z,5.70
2019-05-09T22:59:45.610Z,5.70
2019-05-09T23:02:16.097Z,5.70
2019-05-09T23:04:46.495Z,5.70
2019-05-09T23:07:16.988Z,5.60
2019-05-09T23:09:47.380Z,5.50
2019-05-09T23:12:17.772Z,5.60
2019-05-09T23:14:48.304Z,5.50
2019-05-09T23:17:18.808Z,5.60
2019-05-09T23:19:49.346Z,5.60
2019-05-09T23:22:21.332Z,5.50
2019-05-09T23:24:52.039Z,5.50
2019-05-09T23:27:22.540Z,5.50
2019-05-09T23:29:53.132Z,5.40
2019-05-09T23:32:40.742Z,5.40
2019-05-09T23:35:11.597Z,5.30
2019-05-09T23:37:42.728Z,5.30
2019-05-09T23:40:16.280Z,5.30
2019-05-09T23:42:46.717Z,5.30
2019-05-09T23:45:17.254Z,5.30
2019-05-09T23:47:47.651Z,5.30
2019-05-09T23:50:18.075Z,5.20
2019-05-09T23:52:48.573Z,5.20
2019-05-09T23:55:36.787Z,5.20
2019-05-09T23:58:25.227Z,5.20
